Time;durP1;ratioP1;P1;durP2;ratioP2;P2;SDS_P1;SDS_P2;PMS_P1;PMS_P2;Temp;Humidity;BMP_temperature;BMP_pressure;BME280_temperature;BME280_humidity;BME280_pressure;Samples;Min_cycle;Max_cycle;Signal;HPM_P1;HPM_P2
2024/03/15 00:00:29;;;;;;;12.10;7.03;;;12.00;1.00;;;;;;5073240;28;20566;-70
2024/03/15 00:02:55;;;;;;;10.65;6.90;;;12.00;1.00;;;;;;5073118;28;20112;-69
2024/03/15 00:05:21;;;;;;;9.57;6.47;;;12.00;1.00;;;;;;5073435;28;20017;-69
2024/03/15 00:07:46;;;;;;;9.30;6.25;;;12.00;1.00;;;;;;5073516;28;20356;-69
2024/03/15 00:10:12;;;;;;;9.88;6.97;;;12.00;1.00;;;;;;5073187;28;20111;-69
2024/03/15 00:12:37;;;;;;;7.03;6.10;;;12.00;1.00;;;;;;5073210;28;20036;-69
2024/03/15 00:15:03;;;;;;;9.23;6.60;;;12.10;1.00;;;;;;5073210;28;20020;-69
2024/03/15 00:17:29;;;;;;;8.38;6.95;;;12.00;1.00;;;;;;5073170;28;20055;-69
2024/03/15 00:19:54;;;;;;;9.18;6.70;;;12.10;1.00;;;;;;5073144;28;20085;-69
2024/03/15 00:22:23;;;;;;;9.63;6.70;;;12.10;1.00;;;;;;5072977;28;20032;-69
2024/03/15 00:24:49;;;;;;;10.88;6.28;;;12.10;1.00;;;;;;5073052;28;20024;-69
2024/03/15 00:27:14;;;;;;;13.90;8.02;;;12.20;1.00;;;;;;5073206;28;20487;-68
2024/03/15 00:29:40;;;;;;;11.32;7.03;;;12.20;1.00;;;;;;5072985;28;20394;-68
2024/03/15 00:32:06;;;;;;;12.38;7.22;;;12.20;1.00;;;;;;5073226;28;20031;-69
2024/03/15 00:34:33;;;;;;;9.18;6.93;;;12.20;1.00;;;;;;5072762;28;20406;-69
2024/03/15 00:36:59;;;;;;;9.60;6.35;;;12.10;1.00;;;;;;5073034;28;20028;-69
2024/03/15 00:39:24;;;;;;;9.77;6.82;;;12.10;1.00;;;;;;5073117;28;20036;-69
2024/03/15 00:41:50;;;;;;;10.95;6.28;;;12.10;1.00;;;;;;5073156;28;20382;-69
2024/03/15 00:44:15;;;;;;;7.97;6.20;;;12.00;1.00;;;;;;5073010;28;20025;-69
2024/03/15 00:46:41;;;;;;;8.65;6.43;;;11.90;1.00;;;;;;5072845;28;20024;-69
2024/03/15 00:49:06;;;;;;;11.93;6.35;;;11.90;1.00;;;;;;5076035;28;20116;-69
2024/03/15 00:51:32;;;;;;;11.82;6.85;;;11.90;1.00;;;;;;5076860;28;20036;-69
2024/03/15 00:53:58;;;;;;;9.45;6.65;;;11.80;1.00;;;;;;5076861;28;20039;-68
2024/03/15 00:56:23;;;;;;;10.95;7.10;;;11.70;1.00;;;;;;5076763;28;20059;-69
2024/03/15 00:58:50;;;;;;;8.50;6.68;;;11.70;1.60;;;;;;5076441;28;20055;-69
2024/03/15 01:01:15;;;;;;;8.60;6.55;;;11.70;11.90;;;;;;5076822;28;20085;-69
2024/03/15 01:03:41;;;;;;;10.20;7.30;;;11.70;1.00;;;;;;5076638;28;20491;-69
2024/03/15 01:06:07;;;;;;;10.82;6.55;;;11.70;3.30;;;;;;5076593;28;20031;-69
2024/03/15 01:08:33;;;;;;;11.13;7.03;;;11.80;1.00;;;;;;5076564;28;20389;-69
2024/03/15 01:10:59;;;;;;;12.95;6.45;;;11.80;1.00;;;;;;5076627;28;20060;-69
2024/03/15 01:13:24;;;;;;;11.25;7.05;;;11.70;1.00;;;;;;5076457;28;20024;-69
2024/03/15 01:15:50;;;;;;;7.93;6.22;;;11.80;1.00;;;;;;5076483;28;20039;-69
2024/03/15 01:18:16;;;;;;;9.40;6.25;;;11.70;1.00;;;;;;5076195;28;20039;-69
2024/03/15 01:20:42;;;;;;;7.72;6.60;;;11.80;1.00;;;;;;5075987;28;20073;-69
2024/03/15 01:23:08;;;;;;;8.32;6.68;;;11.80;1.00;;;;;;5076188;28;20025;-69
2024/03/15 01:25:35;;;;;;;9.77;6.78;;;11.80;1.00;;;;;;5092068;28;20107;-69
2024/03/15 01:28:02;;;;;;;9.57;7.03;;;11.90;1.00;;;;;;5076278;28;20090;-69
2024/03/15 01:30:29;;;;;;;11.43;6.47;;;11.90;1.00;;;;;;5076169;28;20039;-69
2024/03/15 01:32:55;;;;;;;9.60;6.30;;;11.90;1.00;;;;;;5076083;28;20021;-69
2024/03/15 01:35:22;;;;;;;10.60;6.68;;;12.00;1.00;;;;;;5076279;28;20031;-69
2024/03/15 01:37:47;;;;;;;8.32;6.28;;;12.00;1.00;;;;;;5076077;28;20478;-69
2024/03/15 01:40:15;;;;;;;11.85;5.90;;;12.00;1.00;;;;;;5075830;28;20031;-69
2024/03/15 01:42:41;;;;;;;9.00;6.05;;;12.00;1.00;;;;;;5076027;28;20119;-69
2024/03/15 01:45:09;;;;;;;10.95;6.35;;;12.10;1.00;;;;;;5075843;28;20020;-68
2024/03/15 01:47:35;;;;;;;11.88;6.43;;;12.10;1.00;;;;;;5075979;28;20025;-69
2024/03/15 01:50:02;;;;;;;9.93;5.95;;;12.10;1.00;;;;;;5075904;28;20478;-69
2024/03/15 01:52:32;;;;;;;11.02;6.53;;;12.10;1.00;;;;;;5075745;28;20031;-69
2024/03/15 01:54:58;;;;;;;9.30;6.03;;;12.10;1.00;;;;;;5091000;28;20038;-69
2024/03/15 01:57:24;;;;;;;12.93;6.25;;;12.00;1.00;;;;;;5075427;28;20468;-70
2024/03/15 01:59:49;;;;;;;9.00;6.18;;;12.00;1.00;;;;;;5074542;28;20028;-69
2024/03/15 02:02:15;;;;;;;7.97;6.25;;;11.90;1.00;;;;;;5075514;28;20387;-68
2024/03/15 02:04:41;;;;;;;10.57;5.95;;;11.80;1.00;;;;;;5075567;28;20099;-68
2024/03/15 02:07:08;;;;;;;12.98;7.13;;;11.70;1.00;;;;;;5075442;28;20479;-68
2024/03/15 02:09:34;;;;;;;9.02;6.10;;;11.60;1.00;;;;;;5075295;28;20029;-69
2024/03/15 02:12:00;;;;;;;9.13;6.43;;;11.50;1.00;;;;;;5075356;28;20040;-69
2024/03/15 02:14:25;;;;;;;11.45;6.68;;;11.40;2.20;;;;;;5075495;28;20548;-68
2024/03/15 02:16:53;;;;;;;11.68;6.80;;;11.40;23.80;;;;;;5075461;28;20032;-68
2024/03/15 02:19:19;;;;;;;10.85;6.88;;;11.40;29.40;;;;;;5075327;28;20557;-68
2024/03/15 02:21:48;;;;;;;12.30;7.50;;;11.50;37.30;;;;;;5075017;28;20033;-69
2024/03/15 02:24:15;;;;;;;9.70;6.20;;;11.50;33.10;;;;;;5074857;28;20033;-69
2024/03/15 02:26:41;;;;;;;10.52;6.50;;;11.60;28.90;;;;;;5074920;28;20024;-68
2024/03/15 02:29:08;;;;;;;10.68;6.72;;;11.60;21.60;;;;;;5075116;28;20457;-69
2024/03/15 02:31:34;;;;;;;7.50;6.18;;;11.60;19.10;;;;;;5075168;28;20036;-69
2024/03/15 02:34:00;;;;;;;10.68;6.35;;;11.60;9.10;;;;;;5074943;28;20028;-68
2024/03/15 02:36:26;;;;;;;12.13;6.38;;;11.70;12.20;;;;;;5074926;28;20085;-69
2024/03/15 02:38:51;;;;;;;9.13;5.90;;;11.70;7.20;;;;;;5074806;28;20024;-69
2024/03/15 02:41:18;;;;;;;9.77;6.60;;;11.70;1.00;;;;;;5074680;28;20020;-69
2024/03/15 02:43:44;;;;;;;9.98;6.47;;;11.70;1.00;;;;;;5074701;28;20050;-68
2024/03/15 02:46:10;;;;;;;12.05;7.05;;;11.60;1.00;;;;;;5074716;28;20024;-68
2024/03/15 02:48:39;;;;;;;11.52;6.53;;;11.60;7.80;;;;;;5074792;28;20032;-69
2024/03/15 02:51:05;;;;;;;9.75;6.40;;;11.60;12.10;;;;;;5074445;28;20025;-69
2024/03/15 02:53:31;;;;;;;11.60;6.55;;;11.60;6.60;;;;;;5074208;28;20035;-69
2024/03/15 02:55:57;;;;;;;10.55;6.57;;;11.60;3.50;;;;;;5074751;28;20024;-70
2024/03/15 02:58:22;;;;;;;8.77;6.60;;;11.60;10.10;;;;;;5074264;28;20040;-69
2024/03/15 03:00:48;;;;;;;12.82;6.28;;;11.50;9.20;;;;;;5074383;28;20086;-69
2024/03/15 03:03:13;;;;;;;10.45;6.10;;;11.60;12.20;;;;;;5074257;28;20017;-69
2024/03/15 03:05:39;;;;;;;9.27;5.82;;;11.60;18.80;;;;;;5074256;28;20504;-69
2024/03/15 03:08:05;;;;;;;9.93;6.30;;;11.60;9.10;;;;;;5074237;28;20063;-70
2024/03/15 03:10:31;;;;;;;10.05;5.97;;;11.70;2.70;;;;;;5074247;28;20028;-69
2024/03/15 03:12:57;;;;;;;14.27;6.20;;;11.70;1.00;;;;;;5074348;28;20478;-69
2024/03/15 03:15:23;;;;;;;8.77;6.03;;;11.60;1.00;;;;;;5074135;28;20032;-70
2024/03/15 03:17:48;;;;;;;9.65;5.40;;;11.70;1.00;;;;;;5073832;28;20027;-69
2024/03/15 03:20:19;;;;;;;11.82;5.43;;;11.60;1.00;;;;;;5073873;28;20482;-69
2024/03/15 03:22:45;;;;;;;12.30;5.55;;;11.60;1.00;;;;;;5073912;28;20029;-69
2024/03/15 03:25:11;;;;;;;9.75;5.63;;;11.60;1.00;;;;;;5074037;28;20034;-69
2024/03/15 03:27:36;;;;;;;6.97;5.25;;;11.60;1.00;;;;;;5073837;28;20025;-69
2024/03/15 03:30:03;;;;;;;9.63;5.63;;;11.70;1.00;;;;;;5073822;28;20032;-69
2024/03/15 03:32:29;;;;;;;10.95;5.30;;;11.60;1.00;;;;;;5073896;28;20128;-69
2024/03/15 03:34:54;;;;;;;9.55;5.22;;;11.50;1.00;;;;;;5073749;28;20103;-68
2024/03/15 03:37:20;;;;;;;9.63;4.93;;;11.70;1.00;;;;;;5074021;28;20115;-69
2024/03/15 03:39:46;;;;;;;9.73;5.53;;;11.70;1.00;;;;;;5073623;28;20033;-69
2024/03/15 03:42:12;;;;;;;8.02;5.45;;;11.60;1.00;;;;;;5073711;28;20115;-69
2024/03/15 03:44:38;;;;;;;9.25;5.28;;;11.60;1.00;;;;;;5073553;28;20025;-69
2024/03/15 03:47:03;;;;;;;8.50;4.93;;;11.60;1.00;;;;;;5073736;28;20055;-69
2024/03/15 03:49:29;;;;;;;8.93;5.57;;;11.60;1.00;;;;;;5073733;28;20056;-69
2024/03/15 03:51:57;;;;;;;8.82;5.72;;;11.70;1.00;;;;;;5073554;28;20064;-69
2024/03/15 03:54:24;;;;;;;9.55;5.40;;;11.70;1.00;;;;;;5073649;28;20048;-68
2024/03/15 03:56:50;;;;;;;11.60;5.10;;;11.70;1.00;;;;;;5073519;28;20028;-69
2024/03/15 03:59:15;;;;;;;10.13;4.80;;;11.70;1.00;;;;;;5073213;28;20097;-69
2024/03/15 04:01:41;;;;;;;10.45;5.45;;;11.70;1.00;;;;;;5073493;28;20025;-69
2024/03/15 04:04:06;;;;;;;8.23;5.70;;;11.60;1.00;;;;;;5073576;28;20024;-69
2024/03/15 04:06:32;;;;;;;10.40;5.05;;;11.60;1.00;;;;;;5073488;28;20032;-69
2024/03/15 04:08:57;;;;;;;13.13;5.82;;;11.60;1.00;;;;;;5073475;28;20035;-69
2024/03/15 04:11:24;;;;;;;12.23;5.43;;;11.60;1.00;;;;;;5073523;28;20055;-69
2024/03/15 04:13:52;;;;;;;8.88;5.38;;;11.60;1.00;;;;;;5073149;28;20111;-69
2024/03/15 04:16:18;;;;;;;7.05;5.00;;;11.70;1.00;;;;;;5073279;28;20025;-69
2024/03/15 04:18:44;;;;;;;9.18;5.40;;;11.60;1.00;;;;;;5088651;28;20552;-69
2024/03/15 04:21:12;;;;;;;8.23;5.60;;;11.60;1.00;;;;;;5072978;28;20033;-69
2024/03/15 04:23:38;;;;;;;10.95;5.68;;;11.60;1.00;;;;;;5088103;28;20025;-69
2024/03/15 04:26:05;;;;;;;9.02;5.07;;;11.60;1.00;;;;;;5073104;28;20100;-69
2024/03/15 04:28:31;;;;;;;11.55;5.75;;;11.70;1.00;;;;;;5072999;28;20074;-68
2024/03/15 04:30:56;;;;;;;10.65;5.95;;;11.70;1.00;;;;;;5073120;28;20032;-69
2024/03/15 04:33:22;;;;;;;8.35;5.22;;;11.70;1.00;;;;;;5073112;28;20032;-68
2024/03/15 04:35:50;;;;;;;10.15;5.03;;;11.80;1.00;;;;;;5073199;28;20028;-68
2024/03/15 04:38:16;;;;;;;8.02;5.05;;;11.80;1.00;;;;;;5073060;28;20029;-69
2024/03/15 04:40:41;;;;;;;8.38;5.43;;;11.80;1.00;;;;;;5072889;28;20020;-69
2024/03/15 04:43:07;;;;;;;8.75;5.65;;;11.80;1.00;;;;;;5072730;28;20021;-69
2024/03/15 04:45:33;;;;;;;8.40;5.50;;;11.90;1.00;;;;;;5073124;28;20402;-68
2024/03/15 04:48:00;;;;;;;9.40;5.70;;;11.90;1.00;;;;;;5073045;28;20028;-68
2024/03/15 04:50:26;;;;;;;8.88;5.32;;;11.90;1.00;;;;;;5072823;28;20031;-69
2024/03/15 04:52:53;;;;;;;11.10;5.50;;;11.90;1.00;;;;;;5072933;28;20029;-69
2024/03/15 04:55:20;;;;;;;7.72;5.40;;;11.90;1.00;;;;;;5072780;28;20032;-69
2024/03/15 04:57:47;;;;;;;8.60;5.35;;;11.90;1.00;;;;;;5072738;28;20048;-69
2024/03/15 05:00:20;;;;;;;9.18;5.25;;;12.00;1.00;;;;;;5072629;28;20437;-69
2024/03/15 05:02:47;;;;;;;9.25;5.20;;;11.90;1.00;;;;;;5072738;28;20437;-69
2024/03/15 05:05:14;;;;;;;7.90;5.32;;;12.00;1.00;;;;;;5072899;28;20035;-70
2024/03/15 05:07:40;;;;;;;7.72;5.07;;;12.00;1.00;;;;;;5088219;28;20038;-69
2024/03/15 05:10:06;;;;;;;8.00;5.10;;;12.00;1.00;;;;;;5072760;28;20033;-69
2024/03/15 05:12:33;;;;;;;6.35;4.72;;;12.00;1.00;;;;;;5072713;28;20055;-69
2024/03/15 05:14:58;;;;;;;13.60;5.07;;;12.10;1.00;;;;;;5072711;28;20440;-70
2024/03/15 05:17:24;;;;;;;9.48;5.18;;;12.20;1.00;;;;;;5072682;28;20028;-68
2024/03/15 05:19:50;;;;;;;7.78;5.28;;;12.20;99.90;;;;;;5072587;28;20108;-69
2024/03/15 05:22:16;;;;;;;13.45;5.80;;;12.20;99.90;;;;;;5072648;28;20032;-69
2024/03/15 05:24:42;;;;;;;9.90;5.13;;;12.20;99.90;;;;;;5072497;28;20021;-69
2024/03/15 05:27:09;;;;;;;8.43;5.35;;;12.20;99.90;;;;;;5072658;28;20031;-69
2024/03/15 05:29:38;;;;;;;9.60;4.90;;;12.20;99.90;;;;;;5072286;28;20029;-68
2024/03/15 05:32:04;;;;;;;10.38;4.63;;;12.20;99.90;;;;;;5072190;28;20132;-69
2024/03/15 05:34:31;;;;;;;7.13;4.40;;;12.20;99.90;;;;;;5072915;28;20028;-69
2024/03/15 05:36:57;;;;;;;9.52;5.35;;;12.30;99.90;;;;;;5076190;28;20390;-69
2024/03/15 05:39:22;;;;;;;9.43;4.60;;;12.20;99.90;;;;;;5076018;28;20025;-69
2024/03/15 05:41:48;;;;;;;10.88;4.70;;;12.20;99.90;;;;;;5075776;28;20028;-68
2024/03/15 05:44:13;;;;;;;10.07;4.82;;;12.10;99.90;;;;;;5075825;28;20031;-68
2024/03/15 05:46:39;;;;;;;9.45;4.78;;;12.10;99.90;;;;;;5075784;28;20056;-68
2024/03/15 05:49:04;;;;;;;8.30;4.53;;;12.20;99.90;;;;;;5075966;28;20099;-69
2024/03/15 05:51:32;;;;;;;7.38;4.45;;;12.20;99.90;;;;;;5075752;28;20538;-69
2024/03/15 05:53:57;;;;;;;11.95;4.72;;;12.20;99.90;;;;;;5075692;28;20057;-70
2024/03/15 05:56:23;;;;;;;8.48;4.68;;;12.20;99.90;;;;;;5075812;28;20052;-69
2024/03/15 05:58:50;;;;;;;8.88;4.85;;;12.30;99.90;;;;;;5075311;28;20048;-69
2024/03/15 06:01:15;;;;;;;9.93;4.93;;;12.30;99.90;;;;;;5075454;28;20028;-68
2024/03/15 06:03:41;;;;;;;9.18;5.00;;;12.40;99.90;;;;;;5075480;28;20440;-69
2024/03/15 06:06:08;;;;;;;7.95;4.47;;;12.40;99.90;;;;;;5075458;28;20096;-69
2024/03/15 06:08:34;;;;;;;7.85;4.95;;;12.40;99.90;;;;;;5075529;28;20027;-69
2024/03/15 06:11:00;;;;;;;12.85;5.20;;;12.40;99.90;;;;;;5075250;28;20029;-68
2024/03/15 06:13:26;;;;;;;8.95;4.80;;;12.50;1.00;;;;;;5075267;28;20402;-70
2024/03/15 06:15:52;;;;;;;9.48;4.68;;;12.50;1.00;;;;;;5075193;28;20367;-68
2024/03/15 06:18:18;;;;;;;10.48;4.88;;;12.50;99.90;;;;;;5074972;28;20507;-69
2024/03/15 06:20:44;;;;;;;8.95;4.10;;;12.70;99.90;;;;;;5074964;28;20145;-70
2024/03/15 06:23:10;;;;;;;9.10;4.85;;;12.70;1.00;;;;;;5075031;28;20029;-69
2024/03/15 06:25:36;;;;;;;7.68;4.57;;;12.70;1.00;;;;;;5074786;28;20463;-69
2024/03/15 06:28:06;;;;;;;10.23;5.05;;;12.70;1.00;;;;;;5075142;28;20024;-69
2024/03/15 06:30:34;;;;;;;10.57;4.95;;;12.70;1.00;;;;;;5075076;28;20035;-68
2024/03/15 06:33:02;;;;;;;9.32;4.75;;;12.70;99.90;;;;;;5074879;28;20055;-69
2024/03/15 06:35:27;;;;;;;10.38;5.20;;;12.70;1.00;;;;;;5074912;28;20025;-69
2024/03/15 06:37:57;;;;;;;12.98;5.32;;;12.70;1.30;;;;;;5075034;28;20059;-69
2024/03/15 06:40:30;;;;;;;11.55;5.65;;;12.70;1.00;;;;;;5074750;28;20428;-68
2024/03/15 06:45:45;;;;;;;9.95;5.03;;;12.80;99.90;;;;;;5126890;27;20389;-68
2024/03/15 06:48:17;;;;;;;9.13;4.57;;;12.80;99.90;;;;;;5111195;28;20028;-68
2024/03/15 06:53:29;;;;;;;11.00;5.55;;;12.80;99.90;;;;;;5110675;28;20063;-68
2024/03/15 06:55:57;;;;;;;9.73;4.75;;;12.90;1.00;;;;;;5110933;28;20024;-68
2024/03/15 06:58:22;;;;;;;13.40;5.03;;;12.90;1.00;;;;;;5110849;28;20039;-68
2024/03/15 07:00:48;;;;;;;13.48;5.03;;;12.90;1.00;;;;;;5110492;28;20016;-68
2024/03/15 07:03:16;;;;;;;10.32;5.32;;;12.90;98.20;;;;;;5110459;28;20028;-68
2024/03/15 07:05:42;;;;;;;9.00;4.28;;;12.90;86.60;;;;;;5110842;28;20107;-67
2024/03/15 07:08:08;;;;;;;8.93;4.70;;;12.90;99.90;;;;;;5110754;28;20491;-67
2024/03/15 07:10:34;;;;;;;8.43;4.65;;;13.00;99.90;;;;;;5110600;28;20024;-67
2024/03/15 07:13:02;;;;;;;10.27;5.10;;;13.00;99.90;;;;;;5110545;28;20016;-68
2024/03/15 07:15:28;;;;;;;7.88;5.07;;;13.00;99.90;;;;;;5110737;28;20055;-67
2024/03/15 07:17:54;;;;;;;10.60;4.43;;;13.10;1.00;;;;;;5110508;28;20024;-68
2024/03/15 07:20:19;;;;;;;7.95;5.47;;;13.10;46.90;;;;;;5110567;28;20385;-68
2024/03/15 07:22:45;;;;;;;8.52;4.82;;;13.10;69.70;;;;;;5110505;28;20040;-68
2024/03/15 07:25:11;;;;;;;8.45;5.20;;;13.00;99.90;;;;;;5109583;28;20020;-67
2024/03/15 07:27:38;;;;;;;7.72;4.90;;;13.00;99.90;;;;;;5109962;28;20028;-68
2024/03/15 07:30:05;;;;;;;9.75;5.50;;;13.00;99.90;;;;;;5110123;28;20066;-68
2024/03/15 07:32:30;;;;;;;7.72;5.40;;;13.10;99.90;;;;;;5110258;28;20532;-69
2024/03/15 07:34:56;;;;;;;12.15;5.20;;;13.20;45.00;;;;;;5109618;28;20107;-70
2024/03/15 07:37:22;;;;;;;9.82;5.25;;;13.20;1.00;;;;;;5110046;28;20036;-71
2024/03/15 07:39:48;;;;;;;11.70;5.35;;;13.20;1.00;;;;;;5110017;28;20531;-71
2024/03/15 07:42:14;;;;;;;17.23;5.78;;;13.30;1.00;;;;;;5110087;28;20176;-70
2024/03/15 07:44:40;;;;;;;11.43;4.80;;;13.20;1.00;;;;;;5109641;28;20044;-70
2024/03/15 07:47:06;;;;;;;10.68;4.95;;;13.20;1.00;;;;;;5108562;28;20393;-69
2024/03/15 07:49:33;;;;;;;10.73;5.28;;;13.20;65.30;;;;;;5109863;28;20016;-70
2024/03/15 07:51:58;;;;;;;12.02;5.63;;;13.20;1.00;;;;;;5109503;28;20024;-71
2024/03/15 07:54:24;;;;;;;13.63;5.80;;;13.30;99.90;;;;;;5109365;28;20039;-70
2024/03/15 07:56:49;;;;;;;9.88;5.30;;;13.20;99.90;;;;;;5097395;28;20077;-71
2024/03/15 07:59:15;;;;;;;10.48;5.38;;;13.40;99.90;;;;;;5095894;28;20036;-71
2024/03/15 08:01:42;;;;;;;7.97;5.18;;;13.50;99.90;;;;;;5095638;28;20035;-71
2024/03/15 08:04:09;;;;;;;8.02;4.93;;;13.60;1.00;;;;;;5095336;28;20103;-71
2024/03/15 08:06:35;;;;;;;11.20;5.78;;;13.70;99.90;;;;;;5096224;28;20420;-70
2024/03/15 08:09:05;;;;;;;12.93;5.93;;;13.70;99.90;;;;;;5095887;28;20024;-70
2024/03/15 08:11:34;;;;;;;8.90;5.55;;;13.70;99.90;;;;;;5095014;28;20027;-70
2024/03/15 08:14:08;;;;;;;10.60;5.63;;;13.80;99.90;;;;;;5095956;28;20047;-70
2024/03/15 08:16:34;;;;;;;8.43;4.85;;;13.80;79.60;;;;;;5095304;28;20039;-70
2024/03/15 08:19:06;;;;;;;8.57;5.22;;;13.90;99.90;;;;;;5095927;28;20028;-70
2024/03/15 08:21:32;;;;;;;11.82;5.75;;;14.00;99.90;;;;;;5095258;28;20497;-70
2024/03/15 08:24:04;;;;;;;11.18;4.85;;;14.00;99.90;;;;;;5095078;28;20031;-70
2024/03/15 08:26:31;;;;;;;9.63;5.82;;;14.10;1.00;;;;;;5079874;28;20359;-70
2024/03/15 08:28:56;;;;;;;9.88;5.47;;;14.20;1.00;;;;;;5095475;28;20032;-70
2024/03/15 08:31:22;;;;;;;7.65;4.68;;;14.10;1.00;;;;;;5094898;28;20032;-70
2024/03/15 08:33:47;;;;;;;9.90;5.40;;;14.20;1.00;;;;;;5095268;28;20028;-70
2024/03/15 08:36:13;;;;;;;12.20;5.80;;;14.20;1.00;;;;;;5095057;28;20032;-70
2024/03/15 08:38:39;;;;;;;9.70;5.13;;;14.20;99.90;;;;;;5095023;28;20032;-70
2024/03/15 08:41:06;;;;;;;11.93;5.90;;;14.10;7.60;;;;;;5095348;28;20030;-71
2024/03/15 08:43:31;;;;;;;8.13;5.40;;;14.00;1.00;;;;;;5095048;28;20397;-71
2024/03/15 08:45:57;;;;;;;10.93;5.78;;;14.00;99.90;;;;;;5095315;28;20020;-71
2024/03/15 08:48:23;;;;;;;8.52;5.85;;;14.60;99.90;;;;;;5095043;28;20035;-71
2024/03/15 08:50:48;;;;;;;9.02;5.10;;;15.20;91.30;;;;;;5095037;28;20111;-71
2024/03/15 08:53:14;;;;;;;9.52;5.03;;;15.20;99.90;;;;;;5095056;28;20538;-70
2024/03/15 08:55:41;;;;;;;10.35;4.90;;;15.00;1.00;;;;;;5094942;28;20024;-72
2024/03/15 08:58:07;;;;;;;10.55;5.80;;;14.80;1.00;;;;;;5095117;28;20077;-71
2024/03/15 09:00:32;;;;;;;9.35;5.30;;;14.60;99.90;;;;;;5094416;28;20549;-70
2024/03/15 09:02:58;;;;;;;12.85;6.20;;;14.40;1.00;;;;;;5094984;28;20035;-72
2024/03/15 09:05:24;;;;;;;10.85;6.22;;;14.30;1.00;;;;;;5094531;28;20032;-71
2024/03/15 09:07:49;;;;;;;9.10;5.72;;;14.30;99.90;;;;;;5092871;28;20117;-71
2024/03/15 09:10:15;;;;;;;8.43;6.05;;;14.30;99.90;;;;;;5093253;28;20017;-71
2024/03/15 09:12:43;;;;;;;10.80;6.30;;;14.30;99.90;;;;;;5093024;28;20427;-71
2024/03/15 09:15:11;;;;;;;9.73;6.22;;;14.30;1.00;;;;;;5089322;28;20023;-70
2024/03/15 09:17:37;;;;;;;11.65;5.60;;;14.30;1.00;;;;;;5093348;28;20028;-71
2024/03/15 09:20:09;;;;;;;13.45;5.50;;;14.50;99.90;;;;;;5093111;28;20489;-71
2024/03/15 09:22:35;;;;;;;9.43;5.10;;;14.50;1.00;;;;;;5092981;28;20024;-71
2024/03/15 09:25:01;;;;;;;8.38;5.25;;;14.40;99.90;;;;;;5092920;28;20024;-70
2024/03/15 09:27:27;;;;;;;7.28;5.20;;;14.40;1.00;;;;;;5092827;28;20024;-70
2024/03/15 09:29:53;;;;;;;11.20;5.13;;;14.50;99.90;;;;;;5092886;28;20387;-71
2024/03/15 09:32:21;;;;;;;7.60;5.05;;;14.60;99.90;;;;;;5093201;28;20027;-71
2024/03/15 09:34:48;;;;;;;12.00;5.07;;;14.80;1.00;;;;;;5093767;28;20031;-71
2024/03/15 09:37:14;;;;;;;7.80;5.95;;;15.00;10.70;;;;;;5091589;28;20070;-71
2024/03/15 09:39:40;;;;;;;9.98;5.00;;;15.10;99.90;;;;;;5094069;28;20036;-71
2024/03/15 09:42:17;;;;;;;8.18;5.15;;;15.10;99.90;;;;;;5094213;28;20032;-71
2024/03/15 09:44:47;;;;;;;11.25;5.22;;;15.10;99.90;;;;;;5093695;28;20061;-71
2024/03/15 09:47:13;;;;;;;7.72;5.20;;;14.90;99.90;;;;;;5093842;28;20028;-71
2024/03/15 09:49:41;;;;;;;8.20;4.88;;;14.90;1.00;;;;;;5092904;28;20122;-70
2024/03/15 09:52:08;;;;;;;10.02;4.97;;;14.70;99.90;;;;;;5094031;28;20071;-71
2024/03/15 09:54:33;;;;;;;7.20;5.40;;;14.70;99.90;;;;;;5093612;28;20028;-71
2024/03/15 09:56:59;;;;;;;9.15;5.45;;;14.60;24.40;;;;;;5093685;28;20027;-71
2024/03/15 09:59:34;;;;;;;10.30;5.60;;;14.60;99.90;;;;;;5094067;28;20024;-71
2024/03/15 10:02:00;;;;;;;12.80;5.40;;;14.60;99.90;;;;;;5093160;28;20478;-71
2024/03/15 10:04:26;;;;;;;9.48;5.57;;;14.80;1.00;;;;;;5093328;28;20031;-71
2024/03/15 10:06:51;;;;;;;9.00;5.55;;;14.80;1.00;;;;;;5093267;28;20024;-71
2024/03/15 10:09:17;;;;;;;9.65;5.70;;;14.80;1.00;;;;;;5093790;28;20043;-71
2024/03/15 10:11:43;;;;;;;7.57;5.40;;;14.90;99.90;;;;;;5093789;28;20024;-71
2024/03/15 10:14:09;;;;;;;11.25;6.03;;;14.80;99.90;;;;;;5093309;28;20024;-71
2024/03/15 10:16:37;;;;;;;10.02;6.00;;;14.70;1.00;;;;;;5093682;28;20074;-72
2024/03/15 10:19:04;;;;;;;9.77;5.57;;;14.70;99.90;;;;;;5093450;28;20081;-71
2024/03/15 10:21:29;;;;;;;9.65;5.95;;;14.80;68.50;;;;;;5093605;28;20059;-73
2024/03/15 10:23:55;;;;;;;14.65;5.93;;;14.80;99.90;;;;;;5093547;28;20064;-72
2024/03/15 10:26:20;;;;;;;9.25;5.38;;;14.90;99.90;;;;;;5093239;28;20032;-71
2024/03/15 10:28:46;;;;;;;7.90;5.57;;;15.00;1.00;;;;;;5093012;28;20024;-71
2024/03/15 10:31:12;;;;;;;6.80;5.35;;;15.10;99.90;;;;;;5093362;28;20118;-71
2024/03/15 10:33:38;;;;;;;8.48;5.60;;;15.00;1.00;;;;;;5092861;28;20023;-71
2024/03/15 10:36:03;;;;;;;9.40;5.35;;;15.20;1.00;;;;;;5093329;28;20036;-72
2024/03/15 10:38:29;;;;;;;8.68;5.15;;;15.40;99.90;;;;;;5093224;28;20048;-71
2024/03/15 10:40:59;;;;;;;8.43;5.60;;;15.80;1.00;;;;;;5093496;28;20028;-72
2024/03/15 10:43:25;;;;;;;7.32;5.30;;;16.10;99.90;;;;;;5093191;28;20107;-69
2024/03/15 10:45:52;;;;;;;6.63;5.35;;;16.40;1.00;;;;;;5093153;28;20028;-69
2024/03/15 10:48:19;;;;;;;9.60;5.10;;;16.20;1.00;;;;;;5092789;28;20035;-69
2024/03/15 10:50:46;;;;;;;9.73;5.20;;;16.00;1.00;;;;;;5092931;28;20027;-69
2024/03/15 10:53:16;;;;;;;10.50;4.70;;;16.30;1.00;;;;;;5092825;28;20497;-70
2024/03/15 10:55:42;;;;;;;7.45;4.07;;;16.40;99.90;;;;;;5093419;28;20144;-70
2024/03/15 10:58:08;;;;;;;11.23;4.95;;;16.70;99.90;;;;;;5092954;28;20016;-70
2024/03/15 11:00:35;;;;;;;7.47;4.20;;;16.70;1.00;;;;;;5093146;28;20036;-69
2024/03/15 11:03:25;;;;;;;8.95;4.95;;;16.90;1.00;;;;;;5092718;28;20081;-70
2024/03/15 11:05:51;;;;;;;5.93;3.92;;;16.70;1.00;;;;;;5092106;28;20032;-69
2024/03/15 11:08:21;;;;;;;6.85;4.40;;;16.60;1.00;;;;;;5091649;28;20469;-69
2024/03/15 11:10:55;;;;;;;10.32;4.03;;;16.60;1.00;;;;;;5092467;28;20029;-70
2024/03/15 11:13:25;;;;;;;7.10;3.60;;;17.00;1.00;;;;;;5093059;28;20024;-69
2024/03/15 11:15:52;;;;;;;6.05;3.83;;;17.10;1.00;;;;;;5092788;28;20050;-70
2024/03/15 11:18:18;;;;;;;6.43;3.60;;;17.20;99.90;;;;;;5092892;28;20383;-70
2024/03/15 11:20:46;;;;;;;4.75;3.25;;;17.20;99.90;;;;;;5092726;28;20057;-69
2024/03/15 11:23:14;;;;;;;6.82;3.40;;;16.70;99.90;;;;;;5092124;28;20028;-70
2024/03/15 11:26:00;;;;;;;5.03;3.35;;;16.70;99.90;;;;;;5091938;28;20413;-69
2024/03/15 11:28:28;;;;;;;10.38;3.28;;;16.60;99.90;;;;;;5092837;28;20059;-70
2024/03/15 11:30:54;;;;;;;5.43;3.38;;;17.00;99.90;;;;;;5093766;28;20085;-69
2024/03/15 11:33:21;;;;;;;6.85;3.17;;;17.30;99.90;;;;;;5096425;28;20020;-69
2024/03/15 11:35:48;;;;;;;6.90;3.67;;;17.00;99.90;;;;;;5096696;28;20367;-70
2024/03/15 11:38:15;;;;;;;4.15;3.13;;;16.70;99.90;;;;;;5095185;28;20111;-69
2024/03/15 11:40:41;;;;;;;7.70;3.10;;;16.60;99.90;;;;;;5095294;28;20024;-69
2024/03/15 11:43:07;;;;;;;6.70;3.42;;;16.90;99.90;;;;;;5096456;28;20020;-69
2024/03/15 11:45:34;;;;;;;6.38;3.03;;;17.40;99.90;;;;;;5095450;28;20097;-70
2024/03/15 11:48:00;;;;;;;5.15;3.22;;;17.90;99.90;;;;;;5096417;28;20074;-70
2024/03/15 11:50:25;;;;;;;7.88;3.15;;;17.90;42.70;;;;;;5096451;28;20470;-69
2024/03/15 11:52:59;;;;;;;8.95;3.30;;;17.90;1.80;;;;;;5096054;28;20082;-69
2024/03/15 11:55:24;;;;;;;7.03;3.38;;;18.00;1.00;;;;;;5096092;28;20043;-69
2024/03/15 11:57:52;;;;;;;6.75;3.47;;;17.80;1.00;;;;;;5096191;28;20036;-69
2024/03/15 12:00:21;;;;;;;7.22;2.97;;;17.40;1.00;;;;;;5096131;28;20390;-69
2024/03/15 12:02:49;;;;;;;8.43;2.97;;;17.50;1.00;;;;;;5095824;28;20020;-69
2024/03/15 12:05:15;;;;;;;4.30;2.75;;;17.70;1.00;;;;;;5095743;28;20028;-69
2024/03/15 12:07:43;;;;;;;6.18;3.30;;;17.60;1.00;;;;;;5096153;28;20108;-69
2024/03/15 12:10:14;;;;;;;7.40;3.28;;;17.60;1.00;;;;;;5095519;28;20046;-70
2024/03/15 12:12:40;;;;;;;7.95;3.05;;;17.60;1.00;;;;;;5096054;28;20427;-69
2024/03/15 12:15:29;;;;;;;7.35;3.38;;;17.20;1.00;;;;;;5095815;28;20107;-70
2024/03/15 12:17:57;;;;;;;6.35;3.20;;;17.40;1.00;;;;;;5095857;28;20036;-69
2024/03/15 12:20:25;;;;;;;7.78;3.50;;;17.40;1.00;;;;;;5095292;28;20024;-69
2024/03/15 12:22:51;;;;;;;5.53;3.03;;;17.50;1.00;;;;;;5095825;28;20036;-69
2024/03/15 12:25:17;;;;;;;4.00;3.03;;;17.30;1.00;;;;;;5095414;28;20040;-70
2024/03/15 12:27:42;;;;;;;5.70;3.10;;;16.80;1.00;;;;;;5095679;28;20028;-69
2024/03/15 12:30:11;;;;;;;7.40;2.72;;;16.80;1.00;;;;;;5095415;28;20024;-69
2024/03/15 12:32:37;;;;;;;5.18;2.88;;;16.80;1.00;;;;;;5095178;28;20089;-69
2024/03/15 12:35:04;;;;;;;4.72;2.55;;;16.80;1.00;;;;;;5095505;28;20424;-69
2024/03/15 12:37:30;;;;;;;5.57;2.83;;;16.80;1.00;;;;;;5094239;28;20470;-70
2024/03/15 12:39:57;;;;;;;7.28;2.78;;;16.90;1.00;;;;;;5095226;28;20031;-69
2024/03/15 12:42:24;;;;;;;4.82;2.67;;;17.10;1.00;;;;;;5074704;28;20047;-70
2024/03/15 12:44:49;;;;;;;4.93;2.67;;;17.20;1.00;;;;;;5074465;28;20083;-69
2024/03/15 12:47:15;;;;;;;5.32;2.50;;;17.20;1.00;;;;;;5075149;28;20035;-70
2024/03/15 12:49:40;;;;;;;6.75;2.65;;;17.50;1.00;;;;;;5074317;28;20029;-69
2024/03/15 12:52:11;;;;;;;4.97;2.60;;;17.60;1.00;;;;;;5074666;28;20387;-69